Blue Springs, MS (38828)

2:16 PM CDT on July 27, 2016 (GMT -0500)
APRSWXNET | | Change Station

Elev 370 ft 34.36 °N, 88.84 °W | Updated 20 minutes ago

Overcast
Overcast
90 °F
Feels Like 103 °F
N
2
Wind Variable Wind from SE
Gusts 10.0 mph

Today
High -- | Low -- °F
--% Chance of Precip.
Yesterday
High -- | Low -- °F
Precip. -- in
Pressure 29.95 in
Visibility 10.0 miles
Clouds Few 3400 ft
Mostly Cloudy 7000 ft
Overcast 11000 ft
Heat Index 103 °F
Dew Point 77 °F
Humidity 66%
Rainfall in
Snow Depth Not available.
6:02 AM 8:00 PM
Last Quarter, 40% visible
METAR KTUP 271853Z 14009KT 10SM FEW034 BKN070 OVC110 31/23 A2995
Pressure 29.95 in
Visibility 10.0 miles
Clouds Few 3400 ft
Mostly Cloudy 7000 ft
Overcast 11000 ft
Heat Index 103 °F
Dew Point 77 °F
Humidity 66%
Rainfall in
Snow Depth Not available.
6:02 AM 8:00 PM
Last Quarter, 40% visible
METAR KTUP 271853Z 14009KT 10SM FEW034 BKN070 OVC110 31/23 A2995

10-Day Weather Forecast

Almanac

Astronomy

Jul. 27, 2016 Rise Set
Actual Time
Civil Twilight
Nautical Twilight
Astronomical Twilight
Moon
Length of Visible Light
Length of Day
Tomorrow will be .
, % of the Moon is Illuminated

Today's Extremes

State Highs State Lows

Community

WunderPhotos

Upload Photos

1,927,909 photos uploaded!

WunderBlog® & News

Nearby

Air Quality

  Air Quality AQ Index Pollutant
Not available.

Snow Depth

Station Depth Elevation

Earthquake Activity

City Distance Mag. Time & Date
Minimum magnitude displayed is 2.5.

Coastal Water Temperatures

Place Temperature

Stations

Nearby Weather Stations

Station Location Temp. Windchill Dew Point Humidity Wind Precip. Elev Updated Type
                   

Watches & Warnings

There are currently no watches in effect.